createdAt,value
2023-03-21T00:00:57.236Z,9.80
2023-03-21T00:03:28.844Z,9.80
2023-03-21T00:06:00.449Z,9.80
2023-03-21T00:08:28.726Z,9.80
2023-03-21T00:10:58.373Z,9.80
2023-03-21T00:13:32.541Z,9.80
2023-03-21T00:16:11.127Z,9.80
2023-03-21T00:18:48.834Z,9.70
2023-03-21T00:24:09.189Z,9.70
2023-03-21T00:26:38.241Z,9.80
2023-03-21T00:29:10.096Z,9.80
2023-03-21T00:31:41.296Z,9.80
2023-03-21T00:36:41.225Z,9.80
2023-03-21T00:39:09.722Z,9.80
2023-03-21T00:41:45.099Z,9.80
2023-03-21T00:44:15.777Z,9.80
2023-03-21T00:46:54.395Z,9.80
2023-03-21T00:49:33.644Z,9.70
2023-03-21T00:52:27.558Z,9.70
2023-03-21T00:54:53.000Z,9.80
2023-03-21T00:57:29.355Z,9.70
2023-03-21T01:00:02.141Z,9.70
2023-03-21T01:02:32.287Z,9.70
2023-03-21T01:05:00.467Z,9.60
2023-03-21T01:07:28.678Z,9.70
2023-03-21T01:09:56.927Z,9.60
2023-03-21T01:12:27.638Z,9.60
2023-03-21T01:14:57.771Z,9.60
2023-03-21T01:17:27.304Z,9.60
2023-03-21T01:19:55.514Z,9.60
2023-03-21T01:22:26.652Z,9.60
2023-03-21T01:25:00.643Z,9.60
2023-03-21T01:27:34.071Z,9.60
2023-03-21T01:30:02.586Z,9.60
2023-03-21T01:32:32.712Z,9.60
2023-03-21T01:35:00.892Z,9.60
2023-03-21T01:37:29.098Z,9.60
2023-03-21T01:39:57.245Z,9.50
2023-03-21T01:42:25.462Z,9.50
2023-03-21T01:44:56.733Z,9.50
2023-03-21T01:47:28.641Z,9.50
2023-03-21T01:50:17.182Z,9.50
2023-03-21T01:52:55.155Z,9.40
2023-03-21T01:55:32.465Z,9.40
2023-03-21T01:58:19.927Z,9.40
2023-03-21T02:01:02.596Z,9.30
2023-03-21T02:03:50.084Z,9.30
2023-03-21T02:06:33.696Z,9.30
2023-03-21T02:09:15.887Z,9.30
2023-03-21T02:11:46.581Z,9.30
2023-03-21T02:14:28.355Z,9.30
2023-03-21T02:17:22.805Z,9.30
2023-03-21T02:20:25.433Z,9.30
2023-03-21T02:23:27.602Z,9.20
2023-03-21T02:26:41.188Z,9.30
2023-03-21T02:29:31.512Z,9.30
2023-03-21T02:32:22.417Z,9.20
2023-03-21T02:35:27.502Z,9.30
2023-03-21T02:38:01.428Z,9.20
2023-03-21T02:40:36.588Z,9.20
2023-03-21T02:43:20.854Z,9.20
2023-03-21T02:45:54.826Z,9.20
2023-03-21T02:48:38.153Z,9.30
2023-03-21T02:51:17.313Z,9.30
2023-03-21T02:54:10.220Z,9.20
2023-03-21T02:56:41.516Z,9.20
2023-03-21T02:59:11.294Z,9.20
2023-03-21T03:01:39.588Z,9.20
2023-03-21T03:04:19.943Z,9.30
2023-03-21T03:07:12.437Z,9.30
2023-03-21T03:09:57.351Z,9.30
2023-03-21T03:12:33.454Z,9.30
2023-03-21T03:15:11.656Z,9.30
2023-03-21T03:17:51.983Z,9.30
2023-03-21T03:20:31.598Z,9.30
2023-03-21T03:23:08.817Z,9.20
2023-03-21T03:25:43.575Z,9.30
2023-03-21T03:28:18.845Z,9.30
2023-03-21T03:31:01.123Z,9.30
2023-03-21T03:33:42.533Z,9.30
2023-03-21T03:36:28.401Z,9.30
2023-03-21T03:38:59.176Z,9.30
2023-03-21T03:41:34.952Z,9.30
2023-03-21T03:44:13.704Z,9.30
2023-03-21T03:46:56.218Z,9.30
2023-03-21T03:49:27.529Z,9.30
2023-03-21T03:52:00.002Z,9.30
2023-03-21T03:54:41.798Z,9.30
2023-03-21T03:57:13.982Z,9.30
2023-03-21T03:59:45.846Z,9.30
2023-03-21T04:02:27.222Z,9.40
2023-03-21T04:04:57.920Z,9.30
2023-03-21T04:07:26.386Z,9.30
2023-03-21T04:09:59.405Z,9.30
2023-03-21T04:12:30.108Z,9.30
2023-03-21T04:15:21.450Z,9.30
2023-03-21T04:17:55.889Z,9.30
2023-03-21T04:20:36.103Z,9.30
2023-03-21T04:23:05.657Z,9.30
2023-03-21T04:25:36.906Z,9.20
2023-03-21T04:28:08.297Z,9.20
2023-03-21T04:30:58.595Z,9.20
2023-03-21T04:33:29.077Z,9.20
2023-03-21T04:35:59.227Z,9.20
2023-03-21T04:38:31.786Z,9.20
2023-03-21T04:41:04.336Z,9.20
2023-03-21T04:43:36.510Z,9.20
2023-03-21T04:46:04.828Z,9.20
2023-03-21T04:48:33.243Z,9.20
2023-03-21T04:51:02.625Z,9.10
2023-03-21T04:53:31.483Z,9.10
2023-03-21T04:56:00.746Z,9.20
2023-03-21T04:58:29.808Z,9.20
2023-03-21T05:00:59.404Z,9.10
2023-03-21T05:03:30.646Z,9.10
2023-03-21T05:05:59.745Z,9.20
2023-03-21T05:08:30.654Z,9.20
2023-03-21T05:10:58.925Z,9.20
2023-03-21T05:13:28.820Z,9.20
2023-03-21T05:15:57.081Z,9.30
2023-03-21T05:18:27.024Z,9.30
2023-03-21T05:21:10.762Z,9.20
2023-03-21T05:23:42.187Z,9.20
2023-03-21T05:26:11.311Z,9.30
2023-03-21T05:28:50.154Z,9.30
2023-03-21T05:31:19.257Z,9.30
2023-03-21T05:33:51.652Z,9.30
2023-03-21T05:36:21.616Z,9.30
2023-03-21T05:38:52.533Z,9.30
2023-03-21T05:41:21.488Z,9.30
2023-03-21T05:43:50.002Z,9.30
2023-03-21T05:46:18.308Z,9.30
2023-03-21T05:48:49.464Z,9.30
2023-03-21T05:51:24.937Z,9.30
2023-03-21T05:53:53.399Z,9.40
2023-03-21T05:56:22.766Z,9.30
2023-03-21T05:59:08.894Z,9.40
2023-03-21T06:01:42.312Z,9.40
2023-03-21T06:04:16.453Z,9.50
2023-03-21T06:06:49.293Z,9.50
2023-03-21T06:09:20.952Z,9.50
2023-03-21T06:11:59.556Z,9.50
2023-03-21T06:14:43.423Z,9.50
2023-03-21T06:17:33.185Z,9.50
2023-03-21T06:20:12.985Z,9.50
2023-03-21T06:22:52.173Z,9.50
2023-03-21T06:25:21.892Z,9.50
2023-03-21T06:27:50.319Z,9.60
2023-03-21T06:30:19.992Z,9.50
2023-03-21T06:33:26.998Z,9.60
2023-03-21T06:35:56.490Z,9.60
2023-03-21T06:38:26.940Z,9.70
2023-03-21T06:40:55.253Z,9.70
2023-03-21T06:43:25.979Z,9.70
2023-03-21T06:45:54.373Z,9.70
2023-03-21T06:48:22.624Z,9.70
2023-03-21T06:50:52.901Z,9.80
2023-03-21T06:53:27.304Z,9.80
2023-03-21T06:56:16.126Z,9.80
2023-03-21T06:58:46.687Z,9.70
2023-03-21T07:01:35.131Z,9.70
2023-03-21T07:04:07.565Z,9.70
2023-03-21T07:06:37.371Z,9.70
2023-03-21T07:09:06.154Z,9.80
2023-03-21T07:11:37.057Z,9.80
2023-03-21T07:14:06.671Z,9.80
2023-03-21T07:16:34.902Z,9.80
2023-03-21T07:19:03.103Z,9.70
2023-03-21T07:21:31.325Z,9.80
2023-03-21T07:23:59.837Z,9.80
2023-03-21T07:26:28.192Z,9.80
2023-03-21T07:28:57.856Z,9.90
2023-03-21T07:31:29.615Z,9.90
2023-03-21T07:33:57.891Z,10.00
2023-03-21T07:36:26.508Z,10.10
2023-03-21T07:38:54.716Z,10.20
2023-03-21T07:41:25.388Z,10.30
2023-03-21T07:43:53.614Z,10.50
2023-03-21T07:46:23.230Z,10.70
2023-03-21T07:48:51.799Z,10.90
2023-03-21T07:51:19.968Z,11.10
2023-03-21T07:53:50.750Z,11.30
2023-03-21T07:56:21.979Z,11.40
2023-03-21T07:58:52.631Z,11.50
2023-03-21T08:01:22.415Z,11.60
2023-03-21T08:03:51.444Z,11.80
2023-03-21T08:06:19.650Z,11.80
2023-03-21T08:08:47.978Z,11.80
2023-03-21T08:11:18.155Z,11.80
2023-03-21T08:13:46.349Z,11.70
2023-03-21T08:16:14.537Z,11.70
2023-03-21T08:18:44.239Z,11.60
2023-03-21T08:21:12.415Z,11.60
2023-03-21T08:23:40.765Z,11.60
2023-03-21T08:26:09.365Z,11.50
2023-03-21T08:28:39.436Z,11.50
2023-03-21T08:31:11.780Z,11.50
2023-03-21T08:33:40.404Z,11.60
2023-03-21T08:36:11.184Z,11.70
2023-03-21T08:38:39.585Z,11.90
2023-03-21T08:41:08.268Z,12.10
2023-03-21T08:43:36.571Z,12.40
2023-03-21T08:46:05.452Z,12.60
2023-03-21T08:48:33.813Z,12.70
2023-03-21T08:51:02.141Z,12.80
2023-03-21T08:53:31.807Z,12.80
2023-03-21T08:56:00.023Z,12.80
2023-03-21T08:58:30.718Z,12.80
2023-03-21T09:00:58.910Z,12.80
2023-03-21T09:03:27.314Z,12.70
2023-03-21T09:05:55.556Z,12.70
2023-03-21T09:08:24.399Z,12.60
2023-03-21T09:10:56.252Z,12.50
2023-03-21T09:13:25.641Z,12.50
2023-03-21T09:15:54.266Z,12.50
2023-03-21T09:18:42.488Z,12.50
2023-03-21T09:21:12.877Z,12.50
2023-03-21T09:23:41.549Z,12.40
2023-03-21T09:26:11.455Z,12.40
2023-03-21T09:28:40.620Z,12.50
2023-03-21T09:31:11.412Z,12.50
2023-03-21T09:33:41.462Z,12.50
2023-03-21T09:36:12.909Z,12.50
2023-03-21T09:38:42.911Z,12.40
2023-03-21T09:41:26.336Z,12.40
2023-03-21T09:44:08.245Z,12.30
2023-03-21T09:46:42.772Z,12.20
2023-03-21T09:49:17.710Z,12.10
2023-03-21T09:51:52.953Z,12.10
2023-03-21T09:54:27.432Z,12.10
2023-03-21T09:57:01.152Z,12.10
2023-03-21T09:59:36.627Z,12.00
2023-03-21T10:02:16.257Z,12.00
2023-03-21T10:04:44.972Z,11.90
2023-03-21T10:07:18.208Z,11.80
2023-03-21T10:09:48.429Z,11.80
2023-03-21T10:12:22.872Z,11.70
2023-03-21T10:14:57.961Z,11.60
2023-03-21T10:17:33.486Z,11.50
2023-03-21T10:20:13.528Z,11.40
2023-03-21T10:22:42.229Z,11.40
2023-03-21T10:25:16.544Z,11.40
2023-03-21T10:27:47.554Z,11.20
2023-03-21T10:30:27.395Z,11.20
2023-03-21T10:33:02.432Z,11.20
2023-03-21T10:35:33.552Z,11.20
2023-03-21T10:38:02.417Z,11.20
2023-03-21T10:40:31.501Z,11.40
2023-03-21T10:43:19.157Z,11.40
2023-03-21T10:45:48.367Z,11.50
2023-03-21T10:48:17.170Z,11.60
2023-03-21T10:50:49.678Z,11.80
2023-03-21T10:53:22.492Z,12.00
2023-03-21T10:55:55.329Z,12.20
2023-03-21T10:58:29.433Z,12.30
2023-03-21T11:01:00.055Z,12.60
2023-03-21T11:03:32.368Z,12.70
2023-03-21T11:06:04.223Z,12.80
2023-03-21T11:08:38.691Z,12.90
2023-03-21T11:11:08.904Z,13.10
2023-03-21T11:13:42.352Z,13.20
2023-03-21T11:16:13.095Z,13.30
2023-03-21T11:18:43.436Z,13.20
2023-03-21T11:21:14.423Z,13.10
2023-03-21T11:23:46.947Z,13.00
2023-03-21T11:26:24.104Z,13.00
2023-03-21T11:28:54.492Z,13.00
2023-03-21T11:31:24.871Z,13.10
2023-03-21T11:33:55.430Z,13.30
2023-03-21T11:36:34.783Z,13.60
2023-03-21T11:39:35.376Z,13.90
2023-03-21T11:42:04.634Z,14.10
2023-03-21T11:44:36.500Z,14.40
2023-03-21T11:47:04.802Z,14.70
2023-03-21T11:49:33.047Z,15.00
2023-03-21T11:52:18.236Z,15.20
2023-03-21T11:55:17.131Z,15.20
2023-03-21T11:58:05.341Z,15.00
2023-03-21T12:00:47.881Z,14.90
2023-03-21T12:03:48.368Z,14.70
2023-03-21T12:06:27.902Z,14.60
2023-03-21T12:09:11.826Z,14.50
2023-03-21T12:11:55.796Z,14.50
2023-03-21T12:14:36.140Z,14.50
2023-03-21T12:17:19.396Z,14.50
2023-03-21T12:20:12.725Z,14.60
2023-03-21T12:22:58.020Z,14.70
2023-03-21T12:25:30.287Z,14.80
2023-03-21T12:28:11.161Z,14.80
2023-03-21T12:30:55.469Z,14.70
2023-03-21T12:33:47.407Z,14.80
2023-03-21T12:36:37.375Z,14.80
2023-03-21T12:39:18.613Z,14.60
2023-03-21T12:42:00.586Z,14.50
2023-03-21T12:44:36.348Z,14.30
2023-03-21T12:47:11.248Z,14.20
2023-03-21T12:49:46.309Z,14.30
2023-03-21T12:52:17.778Z,14.30
2023-03-21T12:54:56.217Z,14.30
2023-03-21T12:57:30.559Z,14.40
2023-03-21T13:00:11.142Z,14.40
2023-03-21T13:02:44.209Z,14.40
2023-03-21T13:05:20.843Z,14.50
2023-03-21T13:07:53.040Z,14.60
2023-03-21T13:10:23.453Z,14.50
2023-03-21T13:13:05.011Z,14.30
2023-03-21T13:15:50.611Z,14.10
2023-03-21T13:18:32.242Z,14.00
2023-03-21T13:21:06.737Z,14.00
2023-03-21T13:23:38.765Z,13.90
2023-03-21T13:26:11.309Z,14.00
2023-03-21T13:28:43.292Z,14.10
2023-03-21T13:31:19.556Z,14.20
2023-03-21T13:33:49.779Z,14.30
2023-03-21T13:36:25.816Z,14.30
2023-03-21T13:38:56.417Z,14.30
2023-03-21T13:41:30.931Z,14.30
2023-03-21T13:44:10.154Z,14.30
2023-03-21T13:46:54.015Z,14.30
2023-03-21T13:49:32.625Z,14.30
2023-03-21T13:52:03.770Z,14.30
2023-03-21T13:54:49.691Z,14.30
2023-03-21T13:57:39.814Z,14.40
2023-03-21T14:00:24.242Z,14.30
2023-03-21T14:02:58.396Z,14.20
2023-03-21T14:05:28.568Z,14.20
2023-03-21T14:08:12.377Z,14.20
2023-03-21T14:10:44.536Z,14.10
2023-03-21T14:13:20.071Z,14.10
2023-03-21T14:15:55.920Z,14.00
2023-03-21T14:18:47.793Z,14.00
2023-03-21T14:21:23.581Z,14.00
2023-03-21T14:24:00.068Z,14.00
2023-03-21T14:26:31.219Z,14.10
2023-03-21T14:28:59.831Z,14.10
2023-03-21T14:31:28.321Z,14.00
2023-03-21T14:33:59.172Z,13.90
2023-03-21T14:36:29.922Z,13.90
2023-03-21T14:39:07.239Z,13.90
2023-03-21T14:41:44.345Z,13.90
2023-03-21T14:44:26.151Z,13.90
2023-03-21T14:47:00.230Z,13.80
2023-03-21T14:49:30.550Z,13.70
2023-03-21T14:52:02.178Z,13.60
2023-03-21T14:54:32.340Z,13.50
2023-03-21T14:57:03.755Z,13.40
2023-03-21T14:59:35.895Z,13.30
2023-03-21T15:02:19.250Z,13.30
2023-03-21T15:04:51.464Z,13.10
2023-03-21T15:07:28.232Z,13.00
2023-03-21T15:10:03.972Z,13.10
2023-03-21T15:12:32.859Z,13.00
2023-03-21T15:15:02.079Z,13.00
2023-03-21T15:17:30.745Z,13.00
2023-03-21T15:19:58.974Z,13.00
2023-03-21T15:22:33.441Z,13.00
2023-03-21T15:25:06.902Z,12.90
2023-03-21T15:27:41.644Z,12.90
2023-03-21T15:30:20.956Z,12.90
2023-03-21T15:32:52.196Z,12.90
2023-03-21T15:35:23.595Z,12.80
2023-03-21T15:37:57.149Z,12.80
2023-03-21T15:40:29.037Z,12.70
2023-03-21T15:43:08.498Z,12.70
2023-03-21T15:45:48.411Z,12.70
2023-03-21T15:49:44.030Z,12.60
2023-03-21T15:53:13.557Z,12.60
2023-03-21T15:55:49.935Z,12.70
2023-03-21T15:58:21.071Z,12.60
2023-03-21T16:00:54.878Z,12.60
2023-03-21T16:03:27.221Z,12.60
2023-03-21T16:06:17.241Z,12.60
2023-03-21T16:08:47.091Z,12.50
2023-03-21T16:11:26.754Z,12.40
2023-03-21T16:13:56.703Z,12.40
2023-03-21T16:16:27.128Z,12.40
2023-03-21T16:18:56.849Z,12.30
2023-03-21T16:21:28.552Z,12.10
2023-03-21T16:23:58.222Z,12.10
2023-03-21T16:26:29.825Z,12.00
2023-03-21T16:28:58.401Z,11.90
2023-03-21T16:31:28.820Z,11.90
2023-03-21T16:33:57.147Z,11.80
2023-03-21T16:36:28.077Z,11.70
2023-03-21T16:38:56.931Z,11.60
2023-03-21T16:41:28.508Z,11.50
2023-03-21T16:43:56.740Z,11.40
2023-03-21T16:46:26.190Z,11.30
2023-03-21T16:48:55.970Z,11.20
2023-03-21T16:51:27.062Z,11.10
2023-03-21T16:53:55.961Z,11.00
2023-03-21T16:56:28.851Z,10.90
2023-03-21T16:58:58.635Z,10.70
2023-03-21T17:01:30.203Z,10.60
2023-03-21T17:03:59.302Z,10.50
2023-03-21T17:06:30.444Z,10.40
2023-03-21T17:09:00.634Z,10.30
2023-03-21T17:11:36.092Z,10.20
2023-03-21T17:14:04.352Z,10.10
2023-03-21T17:16:32.557Z,10.10
2023-03-21T17:19:01.817Z,10.00
2023-03-21T17:21:31.492Z,10.00
2023-03-21T17:23:59.880Z,9.80
2023-03-21T17:26:30.579Z,9.80
2023-03-21T17:28:59.851Z,9.70
2023-03-21T17:31:32.843Z,9.70
2023-03-21T17:34:03.025Z,9.60
2023-03-21T17:36:33.896Z,9.50
2023-03-21T17:39:08.865Z,9.40
2023-03-21T17:41:41.170Z,9.40
2023-03-21T17:44:09.404Z,9.30
2023-03-21T17:46:38.832Z,9.20
2023-03-21T17:49:07.839Z,9.20
2023-03-21T17:51:38.697Z,9.10
2023-03-21T17:54:07.209Z,9.00
2023-03-21T17:56:37.565Z,9.00
2023-03-21T17:59:09.514Z,8.80
2023-03-21T18:01:37.710Z,8.80
2023-03-21T18:04:10.985Z,8.80
2023-03-21T18:06:41.871Z,8.80
2023-03-21T18:09:11.954Z,8.70
2023-03-21T18:11:41.531Z,8.70
2023-03-21T18:14:19.497Z,8.70
2023-03-21T18:16:54.306Z,8.60
2023-03-21T18:19:22.888Z,8.60
2023-03-21T18:21:51.414Z,8.60
2023-03-21T18:24:19.678Z,8.50
2023-03-21T18:26:47.881Z,8.50
2023-03-21T18:30:15.709Z,8.40
2023-03-21T18:32:08.812Z,8.40
2023-03-21T18:34:39.501Z,8.30
2023-03-21T18:37:09.097Z,8.30
2023-03-21T18:39:38.667Z,8.30
2023-03-21T18:42:07.610Z,8.10
2023-03-21T18:44:46.895Z,8.10
2023-03-21T18:47:15.883Z,8.00
2023-03-21T18:52:33.044Z,7.90
2023-03-21T18:55:01.311Z,7.90
2023-03-21T18:57:36.802Z,7.90
2023-03-21T19:00:12.736Z,7.80
2023-03-21T19:02:45.474Z,7.70
2023-03-21T19:05:15.717Z,7.70
2023-03-21T19:07:44.312Z,7.60
2023-03-21T19:10:18.029Z,7.60
2023-03-21T19:12:47.791Z,7.50
2023-03-21T19:15:19.785Z,7.50
2023-03-21T19:20:37.915Z,7.40
2023-03-21T19:23:08.219Z,7.40
2023-03-21T19:25:38.002Z,7.30
2023-03-21T19:28:06.688Z,7.30
2023-03-21T19:30:36.743Z,7.20
2023-03-21T19:33:05.362Z,7.20
2023-03-21T19:35:37.320Z,7.20
2023-03-21T19:38:05.664Z,7.10
2023-03-21T19:40:33.870Z,7.10
2023-03-21T19:43:21.469Z,7.10
2023-03-21T19:45:54.059Z,7.10
2023-03-21T19:48:23.434Z,7.10
2023-03-21T19:51:25.883Z,7.10
2023-03-21T19:53:40.715Z,7.00
2023-03-21T19:56:21.113Z,7.00
2023-03-21T19:58:51.155Z,7.00
2023-03-21T20:01:21.137Z,6.90
2023-03-21T20:03:52.422Z,7.00
2023-03-21T20:06:22.245Z,7.00
2023-03-21T20:09:27.276Z,7.00
2023-03-21T20:11:39.027Z,7.00
2023-03-21T20:14:07.417Z,7.10
2023-03-21T20:16:37.546Z,7.10
2023-03-21T20:19:08.953Z,7.20
2023-03-21T20:21:53.043Z,7.30
2023-03-21T20:24:24.891Z,7.40
2023-03-21T20:26:54.980Z,7.40
2023-03-21T20:32:14.297Z,7.50
2023-03-21T20:34:44.364Z,7.50
2023-03-21T20:37:13.140Z,7.60
2023-03-21T20:39:41.736Z,7.60
2023-03-21T20:42:09.962Z,7.60
2023-03-21T20:44:57.730Z,7.60
2023-03-21T20:47:28.094Z,7.60
2023-03-21T20:49:56.853Z,7.60
2023-03-21T20:52:57.798Z,7.60
2023-03-21T20:55:14.319Z,7.60
2023-03-21T20:57:42.892Z,7.60
2023-03-21T21:00:14.911Z,7.50
2023-03-21T21:02:45.911Z,7.50
2023-03-21T21:05:27.420Z,7.50
2023-03-21T21:07:56.655Z,7.40
2023-03-21T21:10:25.920Z,7.30
2023-03-21T21:12:54.358Z,7.30
2023-03-21T21:15:22.537Z,7.30
2023-03-21T21:18:06.684Z,7.20
2023-03-21T21:20:37.012Z,7.10
2023-03-21T21:23:05.718Z,7.00
2023-03-21T21:25:34.856Z,7.00
2023-03-21T21:28:03.687Z,7.00
2023-03-21T21:30:33.639Z,6.80
2023-03-21T21:33:03.176Z,6.80
2023-03-21T21:35:33.554Z,6.80
2023-03-21T21:38:01.961Z,6.80
2023-03-21T21:40:30.157Z,6.80
2023-03-21T21:43:03.354Z,6.70
2023-03-21T21:45:31.775Z,6.70
2023-03-21T21:48:03.782Z,6.70
2023-03-21T21:50:32.050Z,6.70
2023-03-21T21:53:03.923Z,6.70
2023-03-21T21:55:32.779Z,6.70
2023-03-21T21:58:01.424Z,6.70
2023-03-21T22:00:34.195Z,6.60
2023-03-21T22:03:04.028Z,6.60
2023-03-21T22:05:32.670Z,6.50
2023-03-21T22:08:00.845Z,6.50
2023-03-21T22:10:29.226Z,6.50
2023-03-21T22:12:57.378Z,6.40
2023-03-21T22:15:26.081Z,6.40
2023-03-21T22:17:57.394Z,6.30
2023-03-21T22:20:27.005Z,6.30
2023-03-21T22:22:56.803Z,6.30
2023-03-21T22:25:25.262Z,6.30
2023-03-21T22:27:53.486Z,6.30
2023-03-21T22:30:21.917Z,6.30
2023-03-21T22:33:06.267Z,6.30
2023-03-21T22:35:38.062Z,6.30
2023-03-21T22:38:06.323Z,6.20
2023-03-21T22:40:34.526Z,6.20
2023-03-21T22:43:02.827Z,6.30
2023-03-21T22:45:31.093Z,6.30
2023-03-21T22:47:59.966Z,6.30
2023-03-21T22:50:28.696Z,6.30
2023-03-21T22:52:58.244Z,6.30
2023-03-21T22:55:26.448Z,6.20
2023-03-21T22:57:54.705Z,6.20
2023-03-21T23:00:22.908Z,6.20
2023-03-21T23:02:54.170Z,6.10
2023-03-21T23:05:22.365Z,6.10
2023-03-21T23:07:50.713Z,6.00
2023-03-21T23:10:20.616Z,6.00
2023-03-21T23:12:49.327Z,6.00
2023-03-21T23:15:17.718Z,5.90
2023-03-21T23:17:46.595Z,5.90
2023-03-21T23:20:14.839Z,5.90
2023-03-21T23:22:43.037Z,5.80
2023-03-21T23:25:11.995Z,5.80
2023-03-21T23:27:41.802Z,5.80
2023-03-21T23:30:10.515Z,5.80
2023-03-21T23:32:38.748Z,5.80
2023-03-21T23:35:08.191Z,5.80
2023-03-21T23:37:36.415Z,5.70
2023-03-21T23:40:06.373Z,5.60
2023-03-21T23:42:35.947Z,5.60
2023-03-21T23:45:06.578Z,5.60
2023-03-21T23:47:34.736Z,5.50
2023-03-21T23:50:06.921Z,5.50
2023-03-21T23:52:35.151Z,5.40
2023-03-21T23:55:03.357Z,5.40
2023-03-21T23:57:31.980Z,5.40
